createdAt,value
2023-04-15T00:01:10.690Z,42.79
2023-04-15T00:03:37.968Z,42.55
2023-04-15T00:06:05.286Z,42.72
2023-04-15T00:08:33.496Z,42.05
2023-04-15T00:11:03.158Z,42.73
2023-04-15T00:13:30.218Z,42.67
2023-04-15T00:15:57.127Z,42.04
2023-04-15T00:18:24.932Z,42.44
2023-04-15T00:20:52.556Z,42.28
2023-04-15T00:23:21.158Z,42.29
2023-04-15T00:25:47.840Z,42.12
2023-04-15T00:28:14.714Z,42.02
2023-04-15T00:30:43.760Z,41.92
2023-04-15T00:33:12.418Z,42.28
2023-04-15T00:35:39.496Z,41.65
2023-04-15T00:38:08.120Z,42.30
2023-04-15T00:40:35.538Z,42.33
2023-04-15T00:43:02.670Z,42.09
2023-04-15T00:45:30.291Z,42.52
2023-04-15T00:47:57.303Z,42.49
2023-04-15T00:50:24.089Z,42.26
2023-04-15T00:52:50.825Z,42.23
2023-04-15T00:55:17.522Z,43.45
2023-04-15T00:57:44.765Z,42.61
2023-04-15T01:00:12.209Z,42.50
2023-04-15T01:02:39.685Z,43.36
2023-04-15T01:05:08.124Z,43.77
2023-04-15T01:07:34.932Z,44.10
2023-04-15T01:10:04.484Z,44.05
2023-04-15T01:12:34.564Z,43.80
2023-04-15T01:15:03.191Z,44.34
2023-04-15T01:17:31.856Z,44.27
2023-04-15T01:19:58.894Z,43.46
2023-04-15T01:22:26.740Z,44.16
2023-04-15T01:25:11.595Z,44.72
2023-04-15T01:27:40.960Z,43.46
2023-04-15T01:30:09.175Z,43.73
2023-04-15T01:32:36.390Z,43.88
2023-04-15T01:35:03.262Z,44.05
2023-04-15T01:37:30.997Z,43.87
2023-04-15T01:39:58.513Z,45.17
2023-04-15T01:42:26.398Z,45.34
2023-04-15T01:44:53.726Z,45.22
2023-04-15T01:47:20.794Z,45.39
2023-04-15T01:49:47.793Z,44.70
2023-04-15T01:52:15.966Z,44.50
2023-04-15T01:54:42.639Z,44.15
2023-04-15T01:57:09.868Z,44.19
2023-04-15T01:59:37.323Z,44.24
2023-04-15T02:02:05.456Z,44.20
2023-04-15T02:04:35.532Z,43.91
2023-04-15T02:07:02.373Z,44.31
2023-04-15T02:09:29.277Z,45.22
2023-04-15T02:11:56.576Z,45.53
2023-04-15T02:14:23.828Z,44.47
2023-04-15T02:16:50.564Z,45.65
2023-04-15T02:19:17.593Z,44.67
2023-04-15T02:21:47.168Z,44.08
2023-04-15T02:24:17.900Z,44.70
2023-04-15T02:26:46.628Z,44.34
2023-04-15T02:29:13.304Z,43.90
2023-04-15T02:31:42.248Z,43.13
2023-04-15T02:34:09.427Z,42.26
2023-04-15T02:36:36.426Z,42.28
2023-04-15T02:39:05.932Z,42.17
2023-04-15T02:41:32.695Z,42.06
2023-04-15T02:43:59.745Z,42.06
2023-04-15T02:46:30.310Z,42.54
2023-04-15T02:48:57.093Z,43.08
2023-04-15T02:51:24.534Z,42.46
2023-04-15T02:53:51.275Z,43.00
2023-04-15T02:56:19.507Z,42.63
2023-04-15T02:58:46.636Z,42.49
2023-04-15T03:01:16.533Z,42.84
2023-04-15T03:03:43.639Z,42.97
2023-04-15T03:06:10.758Z,42.64
2023-04-15T03:08:37.406Z,42.37
2023-04-15T03:11:05.022Z,42.49
2023-04-15T03:13:33.773Z,42.71
2023-04-15T03:16:09.985Z,43.44
2023-04-15T03:18:36.853Z,43.73
2023-04-15T03:21:05.003Z,44.09
2023-04-15T03:23:34.949Z,44.24
2023-04-15T03:26:04.902Z,43.90
2023-04-15T03:28:33.413Z,43.82
2023-04-15T03:31:01.063Z,44.63
2023-04-15T03:33:28.118Z,44.62
2023-04-15T03:35:54.930Z,44.50
2023-04-15T03:38:21.603Z,44.78
2023-04-15T03:40:48.310Z,44.95
2023-04-15T03:43:15.319Z,45.77
2023-04-15T03:45:42.196Z,44.18
2023-04-15T03:48:17.173Z,44.12
2023-04-15T03:50:46.524Z,43.68
2023-04-15T03:53:13.190Z,44.49
2023-04-15T03:55:40.275Z,45.16
2023-04-15T03:58:06.951Z,44.59
2023-04-15T04:00:33.484Z,44.76
2023-04-15T04:03:02.298Z,45.53
2023-04-15T04:05:29.557Z,45.39
2023-04-15T04:07:56.645Z,46.14
2023-04-15T04:10:23.232Z,45.82
2023-04-15T04:12:50.004Z,46.04
2023-04-15T04:15:17.013Z,46.10
2023-04-15T04:17:43.812Z,46.27
2023-04-15T04:20:13.757Z,46.54
2023-04-15T04:22:41.275Z,46.82
2023-04-15T04:25:10.149Z,46.84
2023-04-15T04:27:36.944Z,47.12
2023-04-15T04:30:04.441Z,47.48
2023-04-15T04:32:32.260Z,48.01
2023-04-15T04:34:59.096Z,48.07
2023-04-15T04:37:28.083Z,48.07
2023-04-15T04:39:55.768Z,48.85
2023-04-15T04:42:22.759Z,48.82
2023-04-15T04:44:49.431Z,48.92
2023-04-15T04:47:16.452Z,48.90
2023-04-15T04:49:43.070Z,48.58
2023-04-15T04:52:09.711Z,48.59
2023-04-15T04:54:37.219Z,47.91
2023-04-15T04:57:04.261Z,49.07
2023-04-15T04:59:32.632Z,48.92
2023-04-15T05:01:59.415Z,48.69
2023-04-15T05:04:26.518Z,48.86
2023-04-15T05:06:53.285Z,50.65
2023-04-15T05:09:20.037Z,48.97
2023-04-15T05:11:46.689Z,50.51
2023-04-15T05:14:13.414Z,49.09
2023-04-15T05:16:41.495Z,48.60
2023-04-15T05:19:08.196Z,48.81
2023-04-15T05:21:34.913Z,49.13
2023-04-15T05:24:01.698Z,49.36
2023-04-15T05:26:28.801Z,49.11
2023-04-15T05:28:55.550Z,51.27
2023-04-15T05:31:22.369Z,49.65
2023-04-15T05:33:49.157Z,48.47
2023-04-15T05:36:17.447Z,47.39
2023-04-15T05:38:44.143Z,45.34
2023-04-15T05:41:11.197Z,44.52
2023-04-15T05:43:37.931Z,45.94
2023-04-15T05:46:04.706Z,46.13
2023-04-15T05:48:31.817Z,48.00
2023-04-15T05:50:58.659Z,49.44
2023-04-15T05:53:25.666Z,47.89
2023-04-15T05:55:52.447Z,48.43
2023-04-15T05:58:19.092Z,46.73
2023-04-15T06:00:46.241Z,47.37
2023-04-15T06:03:13.421Z,47.19
2023-04-15T06:05:40.698Z,46.37
2023-04-15T06:08:07.462Z,45.72
2023-04-15T06:10:36.831Z,47.27
2023-04-15T06:13:04.254Z,45.79
2023-04-15T06:15:31.855Z,44.93
2023-04-15T06:17:58.677Z,42.50
2023-04-15T06:20:25.569Z,41.26
2023-04-15T06:22:52.286Z,39.98
2023-04-15T06:25:19.156Z,40.07
2023-04-15T06:27:46.046Z,39.54
2023-04-15T06:30:14.153Z,39.13
2023-04-15T06:32:41.731Z,39.07
2023-04-15T06:35:09.062Z,37.90
2023-04-15T06:37:35.699Z,37.88
2023-04-15T06:40:02.513Z,39.52
2023-04-15T06:42:32.087Z,42.53
2023-04-15T06:44:58.687Z,44.63
2023-04-15T06:47:26.213Z,44.06
2023-04-15T06:49:53.284Z,44.72
2023-04-15T06:52:20.027Z,45.47
2023-04-15T06:54:47.076Z,45.09
2023-04-15T06:57:13.924Z,45.78
2023-04-15T06:59:43.571Z,45.91
2023-04-15T07:02:13.843Z,46.38
2023-04-15T07:04:41.279Z,45.53
2023-04-15T07:07:09.172Z,45.38
2023-04-15T07:09:36.112Z,46.04
2023-04-15T07:12:03.013Z,45.59
2023-04-15T07:14:30.018Z,46.36
2023-04-15T07:16:57.809Z,46.30
2023-04-15T07:19:24.590Z,44.27
2023-04-15T07:21:51.384Z,42.20
2023-04-15T07:24:21.426Z,39.61
2023-04-15T07:26:49.300Z,37.94
2023-04-15T07:29:16.089Z,36.71
2023-04-15T07:31:43.329Z,37.10
2023-04-15T07:34:10.791Z,37.45
2023-04-15T07:36:37.550Z,38.06
2023-04-15T07:39:04.382Z,37.67
2023-04-15T07:41:32.413Z,37.50
2023-04-15T07:43:59.044Z,37.62
2023-04-15T07:46:27.554Z,38.12
2023-04-15T07:48:54.321Z,39.03
2023-04-15T07:51:21.549Z,39.15
2023-04-15T07:53:50.397Z,39.21
2023-04-15T07:56:19.396Z,40.00
2023-04-15T07:58:48.823Z,40.47
2023-04-15T08:01:15.527Z,41.13
2023-04-15T08:03:43.093Z,41.05
2023-04-15T08:06:09.955Z,41.17
2023-04-15T08:08:36.696Z,42.57
2023-04-15T08:11:03.398Z,42.06
2023-04-15T08:13:29.992Z,42.48
2023-04-15T08:16:34.702Z,42.18
2023-04-15T08:19:01.911Z,41.64
2023-04-15T08:21:31.130Z,42.42
2023-04-15T08:23:57.981Z,42.53
2023-04-15T08:26:24.561Z,41.50
2023-04-15T08:28:52.813Z,41.40
2023-04-15T08:31:20.095Z,42.70
2023-04-15T08:33:46.909Z,42.50
2023-04-15T08:36:14.069Z,41.89
2023-04-15T08:38:42.195Z,40.98
2023-04-15T08:41:25.175Z,42.27
2023-04-15T08:44:02.083Z,42.55
2023-04-15T08:46:30.216Z,42.70
2023-04-15T08:48:58.467Z,43.34
2023-04-15T08:51:25.186Z,43.62
2023-04-15T08:53:53.151Z,42.12
2023-04-15T08:56:23.312Z,41.38
2023-04-15T08:58:51.159Z,41.68
2023-04-15T09:01:19.442Z,42.59
2023-04-15T09:03:49.351Z,42.58
2023-04-15T09:06:19.289Z,42.01
2023-04-15T09:08:46.196Z,41.40
2023-04-15T09:11:13.454Z,40.87
2023-04-15T09:13:40.477Z,40.81
2023-04-15T09:16:08.518Z,40.54
2023-04-15T09:18:36.742Z,39.86
2023-04-15T09:21:16.482Z,39.25
2023-04-15T09:24:01.163Z,37.31
2023-04-15T09:26:36.882Z,36.99
2023-04-15T09:29:08.404Z,36.21
2023-04-15T09:31:37.700Z,37.02
2023-04-15T09:34:04.661Z,38.00
2023-04-15T09:36:56.908Z,38.09
2023-04-15T09:39:23.791Z,35.95
2023-04-15T09:42:08.018Z,35.46
2023-04-15T09:44:34.864Z,35.90
2023-04-15T09:47:02.131Z,37.09
2023-04-15T09:49:30.270Z,37.43
2023-04-15T09:52:06.336Z,37.35
2023-04-15T09:54:35.426Z,36.94
2023-04-15T09:57:07.301Z,37.11
2023-04-15T09:59:34.475Z,36.91
2023-04-15T10:02:05.425Z,36.73
2023-04-15T10:04:35.602Z,37.59
2023-04-15T10:07:05.178Z,37.10
2023-04-15T10:09:33.699Z,37.27
2023-04-15T10:12:01.183Z,35.92
2023-04-15T10:14:32.595Z,35.55
2023-04-15T10:17:03.212Z,35.98
2023-04-15T10:19:33.693Z,35.98
2023-04-15T10:22:01.094Z,35.55
2023-04-15T10:24:28.415Z,35.69
2023-04-15T10:26:55.611Z,35.37
2023-04-15T10:29:25.635Z,35.28
2023-04-15T10:31:55.627Z,36.85
2023-04-15T10:34:24.112Z,36.01
2023-04-15T10:36:53.920Z,34.65
2023-04-15T10:39:40.929Z,35.04
2023-04-15T10:42:12.748Z,36.00
2023-04-15T10:44:43.108Z,36.09
2023-04-15T10:47:19.875Z,35.73
2023-04-15T10:49:59.952Z,34.22
2023-04-15T10:52:33.460Z,35.38
2023-04-15T10:55:17.692Z,35.12
2023-04-15T10:57:44.974Z,35.41
2023-04-15T11:00:13.440Z,35.67
2023-04-15T11:02:42.621Z,34.12
2023-04-15T11:05:11.486Z,34.10
2023-04-15T11:07:44.204Z,34.49
2023-04-15T11:10:13.877Z,34.77
2023-04-15T11:12:42.452Z,34.76
2023-04-15T11:15:29.428Z,33.97
2023-04-15T11:18:00.986Z,34.33
2023-04-15T11:20:27.852Z,34.17
2023-04-15T11:23:14.800Z,34.31
2023-04-15T11:25:44.358Z,33.91
2023-04-15T11:28:14.924Z,34.59
2023-04-15T11:30:42.589Z,34.43
2023-04-15T11:33:18.045Z,35.31
2023-04-15T11:35:44.850Z,34.89
2023-04-15T11:38:14.277Z,34.84
2023-04-15T11:40:45.278Z,35.41
2023-04-15T11:43:24.431Z,34.58
2023-04-15T11:46:02.116Z,35.08
2023-04-15T11:48:33.381Z,35.50
2023-04-15T11:51:04.300Z,35.56
2023-04-15T11:53:38.922Z,35.66
2023-04-15T11:56:07.157Z,36.06
2023-04-15T11:58:39.750Z,35.33
2023-04-15T12:01:07.529Z,35.07
2023-04-15T12:03:38.854Z,34.72
2023-04-15T12:06:25.075Z,34.54
2023-04-15T12:08:55.372Z,35.19
2023-04-15T12:11:31.483Z,36.47
2023-04-15T12:14:12.866Z,36.33
2023-04-15T12:17:01.666Z,35.14
2023-04-15T12:19:36.661Z,35.30
2023-04-15T12:22:06.729Z,34.99
2023-04-15T12:24:35.106Z,33.49
2023-04-15T12:27:04.155Z,33.88
2023-04-15T12:29:34.374Z,33.22
2023-04-15T12:32:13.681Z,33.61
2023-04-15T12:34:42.453Z,34.90
2023-04-15T12:37:11.914Z,34.57
2023-04-15T12:39:40.675Z,33.80
2023-04-15T12:42:08.917Z,34.73
2023-04-15T12:44:39.383Z,36.29
2023-04-15T12:47:07.938Z,35.62
2023-04-15T12:49:35.536Z,34.23
2023-04-15T12:52:03.288Z,33.91
2023-04-15T12:54:31.432Z,34.48
2023-04-15T12:56:58.790Z,35.23
2023-04-15T12:59:28.217Z,35.89
2023-04-15T13:01:56.495Z,36.11
2023-04-15T13:04:27.687Z,36.06
2023-04-15T13:06:54.469Z,36.66
2023-04-15T13:09:25.071Z,35.82
2023-04-15T13:11:52.755Z,35.32
2023-04-15T13:14:19.829Z,35.26
2023-04-15T13:16:46.635Z,35.12
2023-04-15T13:19:13.252Z,35.83
2023-04-15T13:21:39.947Z,35.88
2023-04-15T13:24:07.235Z,36.41
2023-04-15T13:26:34.189Z,37.50
2023-04-15T13:29:03.780Z,37.01
2023-04-15T13:31:31.129Z,37.12
2023-04-15T13:33:58.166Z,37.58
2023-04-15T13:36:24.970Z,36.77
2023-04-15T13:38:54.414Z,36.82
2023-04-15T13:41:21.401Z,37.28
2023-04-15T13:43:49.420Z,35.77
2023-04-15T13:46:16.665Z,36.44
2023-04-15T13:48:43.750Z,35.49
2023-04-15T13:51:10.735Z,35.89
2023-04-15T13:53:38.264Z,35.74
2023-04-15T13:56:09.168Z,36.03
2023-04-15T13:58:37.517Z,36.39
2023-04-15T14:01:07.130Z,38.22
2023-04-15T14:03:37.488Z,38.45
2023-04-15T14:06:05.773Z,39.08
2023-04-15T14:08:32.718Z,38.86
2023-04-15T14:11:02.139Z,39.11
2023-04-15T14:13:29.244Z,39.32
2023-04-15T14:15:57.084Z,39.92
2023-04-15T14:18:24.190Z,39.92
2023-04-15T14:20:54.683Z,38.94
2023-04-15T14:23:28.967Z,38.56
2023-04-15T14:25:59.127Z,38.66
2023-04-15T14:28:28.314Z,38.22
2023-04-15T14:30:55.463Z,38.29
2023-04-15T14:33:22.360Z,39.24
2023-04-15T14:35:51.723Z,39.06
2023-04-15T14:38:24.850Z,38.18
2023-04-15T14:40:51.854Z,38.55
2023-04-15T14:43:19.396Z,38.70
2023-04-15T14:45:46.226Z,39.25
2023-04-15T14:48:14.015Z,39.33
2023-04-15T14:50:41.129Z,39.08
2023-04-15T14:53:07.904Z,39.07
2023-04-15T14:55:34.726Z,40.42
2023-04-15T14:58:04.826Z,40.55
2023-04-15T15:00:32.186Z,39.19
2023-04-15T15:02:59.163Z,38.95
2023-04-15T15:05:29.820Z,38.66
2023-04-15T15:07:56.530Z,39.21
2023-04-15T15:10:32.717Z,39.91
2023-04-15T15:13:11.143Z,39.59
2023-04-15T15:15:39.133Z,39.34
2023-04-15T15:18:08.415Z,38.86
2023-04-15T15:20:36.133Z,38.58
2023-04-15T15:23:03.307Z,38.57
2023-04-15T15:25:30.495Z,39.93
2023-04-15T15:27:59.117Z,38.52
2023-04-15T15:30:25.932Z,38.57
2023-04-15T15:32:53.796Z,38.79
2023-04-15T15:35:24.777Z,38.99
2023-04-15T15:37:52.374Z,39.28
2023-04-15T15:40:19.290Z,39.81
2023-04-15T15:42:47.614Z,39.51
2023-04-15T15:45:14.863Z,39.22
2023-04-15T15:47:41.798Z,40.01
2023-04-15T15:50:09.111Z,40.58
2023-04-15T15:52:39.311Z,40.77
2023-04-15T15:55:06.562Z,40.34
2023-04-15T15:57:33.443Z,40.76
2023-04-15T16:00:10.624Z,40.86
2023-04-15T16:05:19.296Z,40.10
2023-04-15T16:07:46.023Z,40.47
2023-04-15T16:10:14.111Z,40.85
2023-04-15T16:12:44.764Z,41.40
2023-04-15T16:15:12.427Z,42.19
2023-04-15T16:17:40.410Z,41.93
2023-04-15T16:20:07.763Z,42.21
2023-04-15T16:22:40.862Z,41.31
2023-04-15T16:25:11.402Z,42.78
2023-04-15T16:30:09.785Z,42.80
2023-04-15T16:32:38.088Z,43.11
2023-04-15T16:35:05.160Z,43.37
2023-04-15T16:37:33.371Z,43.27
2023-04-15T16:40:03.329Z,43.89
2023-04-15T16:42:31.365Z,44.48
2023-04-15T16:45:00.365Z,44.92
2023-04-15T16:47:27.119Z,43.89
2023-04-15T16:49:54.752Z,44.30
2023-04-15T16:52:22.760Z,44.68
2023-04-15T16:54:51.063Z,45.14
2023-04-15T16:57:17.991Z,44.82
2023-04-15T16:59:44.896Z,45.20
2023-04-15T17:02:13.257Z,46.06
2023-04-15T17:04:40.272Z,46.20
2023-04-15T17:07:08.854Z,46.38
2023-04-15T17:09:36.361Z,44.98
2023-04-15T17:12:04.726Z,45.40
2023-04-15T17:14:33.143Z,44.84
2023-04-15T17:17:03.525Z,44.79
2023-04-15T17:19:32.068Z,46.00
2023-04-15T17:22:02.279Z,45.19
2023-04-15T17:24:29.728Z,45.83
2023-04-15T17:26:56.934Z,46.82
2023-04-15T17:29:30.291Z,46.00
2023-04-15T17:31:57.614Z,46.67
2023-04-15T17:34:24.442Z,47.28
2023-04-15T17:36:53.549Z,48.00
2023-04-15T17:39:20.789Z,47.64
2023-04-15T17:41:47.554Z,47.95
2023-04-15T17:44:22.396Z,47.72
2023-04-15T17:46:54.034Z,48.88
2023-04-15T17:49:20.875Z,46.67
2023-04-15T17:51:48.809Z,46.11
2023-04-15T17:54:15.581Z,47.91
2023-04-15T17:56:42.273Z,47.26
2023-04-15T17:59:09.042Z,48.05
2023-04-15T18:01:35.868Z,47.14
2023-04-15T18:04:03.418Z,47.40
2023-04-15T18:06:31.420Z,46.90
2023-04-15T18:08:58.012Z,46.98
2023-04-15T18:11:24.750Z,47.78
2023-04-15T18:13:52.970Z,47.76
2023-04-15T18:16:20.092Z,47.76
2023-04-15T18:18:46.854Z,48.42
2023-04-15T18:21:15.888Z,48.92
2023-04-15T18:23:42.802Z,49.21
2023-04-15T18:26:10.108Z,50.24
2023-04-15T18:28:39.152Z,50.82
2023-04-15T18:31:06.350Z,48.83
2023-04-15T18:33:33.202Z,49.78
2023-04-15T18:36:02.076Z,48.46
2023-04-15T18:38:28.895Z,48.59
2023-04-15T18:40:56.141Z,48.86
2023-04-15T18:43:24.194Z,49.38
2023-04-15T18:45:53.463Z,48.61
2023-04-15T18:48:20.568Z,48.66
2023-04-15T18:50:48.030Z,50.74
2023-04-15T18:53:15.627Z,51.44
2023-04-15T18:55:42.535Z,50.11
2023-04-15T18:58:09.417Z,49.95
2023-04-15T19:00:40.595Z,50.17
2023-04-15T19:03:09.793Z,49.35
2023-04-15T19:05:36.931Z,49.86
2023-04-15T19:08:03.875Z,49.54
2023-04-15T19:10:31.319Z,50.22
2023-04-15T19:12:58.063Z,49.20
2023-04-15T19:15:25.140Z,49.84
2023-04-15T19:17:51.976Z,50.67
2023-04-15T19:20:19.216Z,50.19
2023-04-15T19:22:52.695Z,49.53
2023-04-15T19:25:19.719Z,50.27
2023-04-15T19:27:46.406Z,49.05
2023-04-15T19:30:33.244Z,48.62
2023-04-15T19:33:01.585Z,50.00
2023-04-15T19:35:28.298Z,49.41
2023-04-15T19:37:56.610Z,49.28
2023-04-15T19:40:23.716Z,50.03
2023-04-15T19:42:57.576Z,49.47
2023-04-15T19:45:24.271Z,48.35
2023-04-15T19:47:57.957Z,48.16
2023-04-15T19:50:28.977Z,49.29
2023-04-15T19:52:56.067Z,50.72
2023-04-15T19:55:22.985Z,48.63
2023-04-15T19:57:49.968Z,49.67
2023-04-15T20:00:17.586Z,48.80
2023-04-15T20:02:44.432Z,48.23
2023-04-15T20:05:11.164Z,49.65
2023-04-15T20:07:39.635Z,48.21
2023-04-15T20:10:12.222Z,48.98
2023-04-15T20:12:50.029Z,50.41
2023-04-15T20:15:19.289Z,49.55
2023-04-15T20:17:46.217Z,50.91
2023-04-15T20:20:12.913Z,48.92
2023-04-15T20:22:41.407Z,48.76
2023-04-15T20:25:08.849Z,48.80
2023-04-15T20:27:35.759Z,49.45
2023-04-15T20:30:04.698Z,48.53
2023-04-15T20:32:35.249Z,49.09
2023-04-15T20:35:03.818Z,48.88
2023-04-15T20:37:33.181Z,48.35
2023-04-15T20:40:01.219Z,49.28
2023-04-15T20:42:28.153Z,50.21
2023-04-15T20:44:54.880Z,50.94
2023-04-15T20:47:21.605Z,51.08
2023-04-15T20:49:48.313Z,50.81
2023-04-15T20:52:16.558Z,51.05
2023-04-15T20:54:43.223Z,50.26
2023-04-15T20:57:09.838Z,51.36
2023-04-15T20:59:36.563Z,51.85
2023-04-15T21:02:03.266Z,51.14
2023-04-15T21:04:30.154Z,51.51
2023-04-15T21:06:56.853Z,51.47
2023-04-15T21:09:26.805Z,51.67
2023-04-15T21:12:01.150Z,51.56
2023-04-15T21:14:28.901Z,49.98
2023-04-15T21:16:57.715Z,50.07
2023-04-15T21:19:24.438Z,50.84
2023-04-15T21:21:50.986Z,51.06
2023-04-15T21:24:19.716Z,52.64
2023-04-15T21:26:46.656Z,51.23
2023-04-15T21:29:13.477Z,51.62
2023-04-15T21:31:40.439Z,50.55
2023-04-15T21:34:07.481Z,49.65
2023-04-15T21:36:34.313Z,49.79
2023-04-15T21:39:02.712Z,51.94
2023-04-15T21:41:29.879Z,51.28
2023-04-15T21:43:56.781Z,51.81
2023-04-15T21:46:25.675Z,51.33
2023-04-15T21:49:00.235Z,50.28
2023-04-15T21:51:27.699Z,50.75
2023-04-15T21:53:54.259Z,51.78
2023-04-15T21:56:23.218Z,51.14
2023-04-15T21:58:49.984Z,51.37
2023-04-15T22:01:17.012Z,51.93
2023-04-15T22:03:44.087Z,50.76
2023-04-15T22:06:11.296Z,49.94
2023-04-15T22:08:48.364Z,50.01
2023-04-15T22:11:26.237Z,51.73
2023-04-15T22:13:59.468Z,50.17
2023-04-15T22:16:29.005Z,50.82
2023-04-15T22:18:56.045Z,51.42
2023-04-15T22:21:23.295Z,50.37
2023-04-15T22:23:51.093Z,51.68
2023-04-15T22:26:17.731Z,50.81
2023-04-15T22:28:44.299Z,50.91
2023-04-15T22:31:11.208Z,51.47
2023-04-15T22:33:38.775Z,51.62
2023-04-15T22:36:05.829Z,50.09
2023-04-15T22:38:32.542Z,51.44
2023-04-15T22:40:59.346Z,51.20
2023-04-15T22:43:27.378Z,52.88
2023-04-15T22:45:55.133Z,52.79
2023-04-15T22:48:22.593Z,52.29
2023-04-15T22:50:49.789Z,50.97
2023-04-15T22:53:17.548Z,50.70
2023-04-15T22:55:46.678Z,52.39
2023-04-15T22:58:13.820Z,51.27
2023-04-15T23:00:40.843Z,51.73
2023-04-15T23:03:07.699Z,51.99
2023-04-15T23:05:34.538Z,53.25
2023-04-15T23:08:01.619Z,55.36
2023-04-15T23:10:28.677Z,54.20
2023-04-15T23:12:55.361Z,54.73
2023-04-15T23:15:22.169Z,53.23
2023-04-15T23:17:48.840Z,54.99
2023-04-15T23:20:16.269Z,53.52
2023-04-15T23:22:43.274Z,54.37
2023-04-15T23:25:09.944Z,55.78
2023-04-15T23:27:36.809Z,56.16
2023-04-15T23:30:04.170Z,56.05
2023-04-15T23:32:31.028Z,54.30
2023-04-15T23:34:57.702Z,53.75
2023-04-15T23:37:24.293Z,54.27
2023-04-15T23:39:51.001Z,57.80
2023-04-15T23:42:17.553Z,57.38
2023-04-15T23:44:44.932Z,58.11
2023-04-15T23:47:11.564Z,58.40
2023-04-15T23:49:40.890Z,58.49
2023-04-15T23:52:07.568Z,58.15
2023-04-15T23:54:34.452Z,58.72
2023-04-15T23:57:02.323Z,57.76
2023-04-15T23:59:29.556Z,57.08
